sensor_id;sensor_type;location;lat;lon;timestamp;temperature;humidity
64833;HTU21D;51290;45.060;38.948;2023-07-31T00:01:20;22.26;61.29
64833;HTU21D;51290;45.060;38.948;2023-07-31T00:03:46;22.22;61.35
64833;HTU21D;51290;45.060;38.948;2023-07-31T00:06:12;22.16;61.39
64833;HTU21D;51290;45.060;38.948;2023-07-31T00:08:38;22.10;61.61
64833;HTU21D;51290;45.060;38.948;2023-07-31T00:11:04;22.05;61.94
64833;HTU21D;51290;45.060;38.948;2023-07-31T00:13:30;22.02;61.87
64833;HTU21D;51290;45.060;38.948;2023-07-31T00:15:56;21.98;61.87
64833;HTU21D;51290;45.060;38.948;2023-07-31T00:18:22;21.94;61.88
64833;HTU21D;51290;45.060;38.948;2023-07-31T00:20:48;21.91;61.87
64833;HTU21D;51290;45.060;38.948;2023-07-31T00:23:19;21.84;61.87
64833;HTU21D;51290;45.060;38.948;2023-07-31T00:25:45;21.81;61.91
64833;HTU21D;51290;45.060;38.948;2023-07-31T00:28:11;21.75;62.02
64833;HTU21D;51290;45.060;38.948;2023-07-31T00:30:38;21.70;62.08
64833;HTU21D;51290;45.060;38.948;2023-07-31T00:33:04;21.65;62.21
64833;HTU21D;51290;45.060;38.948;2023-07-31T00:35:30;21.61;62.26
64833;HTU21D;51290;45.060;38.948;2023-07-31T00:37:58;21.58;62.40
64833;HTU21D;51290;45.060;38.948;2023-07-31T00:40:24;21.53;62.50
64833;HTU21D;51290;45.060;38.948;2023-07-31T00:42:50;21.52;62.50
64833;HTU21D;51290;45.060;38.948;2023-07-31T00:45:16;21.48;62.47
64833;HTU21D;51290;45.060;38.948;2023-07-31T00:47:45;21.44;62.53
64833;HTU21D;51290;45.060;38.948;2023-07-31T00:50:11;21.37;62.63
64833;HTU21D;51290;45.060;38.948;2023-07-31T00:52:38;21.32;62.73
64833;HTU21D;51290;45.060;38.948;2023-07-31T00:55:04;21.27;62.79
64833;HTU21D;51290;45.060;38.948;2023-07-31T00:57:31;21.20;62.90
64833;HTU21D;51290;45.060;38.948;2023-07-31T00:59:58;21.15;62.95
64833;HTU21D;51290;45.060;38.948;2023-07-31T01:02:24;21.13;63.05
64833;HTU21D;51290;45.060;38.948;2023-07-31T01:04:51;21.11;63.07
64833;HTU21D;51290;45.060;38.948;2023-07-31T01:10:12;21.10;63.37
64833;HTU21D;51290;45.060;38.948;2023-07-31T01:12:41;21.15;63.18
64833;HTU21D;51290;45.060;38.948;2023-07-31T01:15:09;21.16;63.12
64833;HTU21D;51290;45.060;38.948;2023-07-31T01:17:43;21.15;63.13
64833;HTU21D;51290;45.060;38.948;2023-07-31T01:20:13;21.17;63.11
64833;HTU21D;51290;45.060;38.948;2023-07-31T01:22:58;21.16;63.04
64833;HTU21D;51290;45.060;38.948;2023-07-31T01:28:07;21.17;62.99
64833;HTU21D;51290;45.060;38.948;2023-07-31T01:30:41;21.16;62.90
64833;HTU21D;51290;45.060;38.948;2023-07-31T01:33:09;21.14;62.84
64833;HTU21D;51290;45.060;38.948;2023-07-31T01:35:37;21.11;62.90
64833;HTU21D;51290;45.060;38.948;2023-07-31T01:38:04;21.08;62.94
64833;HTU21D;51290;45.060;38.948;2023-07-31T01:40:30;21.04;62.98
64833;HTU21D;51290;45.060;38.948;2023-07-31T01:42:56;21.00;63.10
64833;HTU21D;51290;45.060;38.948;2023-07-31T01:45:22;20.95;63.16
64833;HTU21D;51290;45.060;38.948;2023-07-31T01:47:48;20.91;63.18
64833;HTU21D;51290;45.060;38.948;2023-07-31T01:50:17;20.87;63.22
64833;HTU21D;51290;45.060;38.948;2023-07-31T01:52:45;20.85;63.40
64833;HTU21D;51290;45.060;38.948;2023-07-31T01:55:11;20.92;63.37
64833;HTU21D;51290;45.060;38.948;2023-07-31T01:57:37;21.01;63.21
64833;HTU21D;51290;45.060;38.948;2023-07-31T02:00:04;21.07;63.04
64833;HTU21D;51290;45.060;38.948;2023-07-31T02:02:37;21.14;62.89
64833;HTU21D;51290;45.060;38.948;2023-07-31T02:05:04;21.20;62.83
64833;HTU21D;51290;45.060;38.948;2023-07-31T02:07:30;21.25;62.76
64833;HTU21D;51290;45.060;38.948;2023-07-31T02:09:55;21.33;62.57
64833;HTU21D;51290;45.060;38.948;2023-07-31T02:12:22;21.37;62.40
64833;HTU21D;51290;45.060;38.948;2023-07-31T02:14:48;21.37;62.30
64833;HTU21D;51290;45.060;38.948;2023-07-31T02:17:13;21.37;62.21
64833;HTU21D;51290;45.060;38.948;2023-07-31T02:19:39;21.38;62.21
64833;HTU21D;51290;45.060;38.948;2023-07-31T02:22:05;21.37;62.19
64833;HTU21D;51290;45.060;38.948;2023-07-31T02:24:31;21.38;62.17
64833;HTU21D;51290;45.060;38.948;2023-07-31T02:26:57;21.42;62.29
64833;HTU21D;51290;45.060;38.948;2023-07-31T02:29:23;21.48;62.13
64833;HTU21D;51290;45.060;38.948;2023-07-31T02:31:49;21.53;61.99
64833;HTU21D;51290;45.060;38.948;2023-07-31T02:34:15;21.58;61.90
64833;HTU21D;51290;45.060;38.948;2023-07-31T02:36:42;21.62;61.78
64833;HTU21D;51290;45.060;38.948;2023-07-31T02:39:08;21.65;61.75
64833;HTU21D;51290;45.060;38.948;2023-07-31T02:41:34;21.68;61.63
64833;HTU21D;51290;45.060;38.948;2023-07-31T02:43:59;21.72;61.57
64833;HTU21D;51290;45.060;38.948;2023-07-31T02:46:28;21.75;61.56
64833;HTU21D;51290;45.060;38.948;2023-07-31T02:48:54;21.77;61.47
64833;HTU21D;51290;45.060;38.948;2023-07-31T02:51:20;21.79;61.38
64833;HTU21D;51290;45.060;38.948;2023-07-31T02:53:47;21.82;61.34
64833;HTU21D;51290;45.060;38.948;2023-07-31T02:56:13;21.88;61.35
64833;HTU21D;51290;45.060;38.948;2023-07-31T02:58:39;21.94;61.22
64833;HTU21D;51290;45.060;38.948;2023-07-31T03:01:05;22.01;61.09
64833;HTU21D;51290;45.060;38.948;2023-07-31T03:03:31;22.09;61.15
64833;HTU21D;51290;45.060;38.948;2023-07-31T03:05:57;22.25;61.05
64833;HTU21D;51290;45.060;38.948;2023-07-31T03:08:23;22.68;60.62
64833;HTU21D;51290;45.060;38.948;2023-07-31T03:10:49;23.29;59.66
64833;HTU21D;51290;45.060;38.948;2023-07-31T03:13:15;24.08;58.34
64833;HTU21D;51290;45.060;38.948;2023-07-31T03:15:44;24.90;56.84
64833;HTU21D;51290;45.060;38.948;2023-07-31T03:18:10;25.71;55.45
64833;HTU21D;51290;45.060;38.948;2023-07-31T03:20:36;26.47;54.17
64833;HTU21D;51290;45.060;38.948;2023-07-31T03:23:02;27.11;53.01
64833;HTU21D;51290;45.060;38.948;2023-07-31T03:25:28;27.59;51.99
64833;HTU21D;51290;45.060;38.948;2023-07-31T03:27:54;27.90;51.21
64833;HTU21D;51290;45.060;38.948;2023-07-31T03:30:20;28.06;50.95
64833;HTU21D;51290;45.060;38.948;2023-07-31T03:32:46;28.33;50.61
64833;HTU21D;51290;45.060;38.948;2023-07-31T03:35:12;28.61;49.92
64833;HTU21D;51290;45.060;38.948;2023-07-31T03:37:38;28.90;49.03
64833;HTU21D;51290;45.060;38.948;2023-07-31T03:40:04;29.16;48.64
64833;HTU21D;51290;45.060;38.948;2023-07-31T03:42:30;29.44;48.16
64833;HTU21D;51290;45.060;38.948;2023-07-31T03:44:59;29.83;47.44
64833;HTU21D;51290;45.060;38.948;2023-07-31T03:47:26;30.21;46.63
64833;HTU21D;51290;45.060;38.948;2023-07-31T03:49:52;30.61;46.07
64833;HTU21D;51290;45.060;38.948;2023-07-31T03:52:18;31.12;45.32
64833;HTU21D;51290;45.060;38.948;2023-07-31T03:54:44;31.59;44.53
64833;HTU21D;51290;45.060;38.948;2023-07-31T03:57:10;31.99;43.82
64833;HTU21D;51290;45.060;38.948;2023-07-31T03:59:37;32.44;43.10
64833;HTU21D;51290;45.060;38.948;2023-07-31T04:02:04;32.85;42.48
64833;HTU21D;51290;45.060;38.948;2023-07-31T04:04:30;33.15;41.84
64833;HTU21D;51290;45.060;38.948;2023-07-31T04:06:56;33.20;41.39
64833;HTU21D;51290;45.060;38.948;2023-07-31T04:09:22;33.40;41.04
64833;HTU21D;51290;45.060;38.948;2023-07-31T04:11:48;33.63;40.55
64833;HTU21D;51290;45.060;38.948;2023-07-31T04:14:14;33.93;39.92
64833;HTU21D;51290;45.060;38.948;2023-07-31T04:16:40;34.15;39.38
64833;HTU21D;51290;45.060;38.948;2023-07-31T04:19:09;34.35;38.80
64833;HTU21D;51290;45.060;38.948;2023-07-31T04:21:36;34.52;38.56
64833;HTU21D;51290;45.060;38.948;2023-07-31T04:24:02;34.67;38.25
64833;HTU21D;51290;45.060;38.948;2023-07-31T04:26:28;34.57;38.20
64833;HTU21D;51290;45.060;38.948;2023-07-31T04:28:54;34.00;38.87
64833;HTU21D;51290;45.060;38.948;2023-07-31T04:31:20;33.16;39.85
64833;HTU21D;51290;45.060;38.948;2023-07-31T04:33:46;32.34;41.21
64833;HTU21D;51290;45.060;38.948;2023-07-31T04:36:17;31.67;42.23
64833;HTU21D;51290;45.060;38.948;2023-07-31T04:38:43;31.15;42.90
64833;HTU21D;51290;45.060;38.948;2023-07-31T04:41:09;30.77;43.58
64833;HTU21D;51290;45.060;38.948;2023-07-31T04:43:35;30.49;44.15
64833;HTU21D;51290;45.060;38.948;2023-07-31T04:46:05;30.28;44.36
64833;HTU21D;51290;45.060;38.948;2023-07-31T04:48:31;30.09;44.50
64833;HTU21D;51290;45.060;38.948;2023-07-31T04:50:57;29.91;44.25
64833;HTU21D;51290;45.060;38.948;2023-07-31T04:53:23;29.71;44.48
64833;HTU21D;51290;45.060;38.948;2023-07-31T04:55:54;29.51;44.54
64833;HTU21D;51290;45.060;38.948;2023-07-31T04:58:21;29.34;44.83
64833;HTU21D;51290;45.060;38.948;2023-07-31T05:00:47;29.19;45.08
64833;HTU21D;51290;45.060;38.948;2023-07-31T05:03:13;29.11;45.23
64833;HTU21D;51290;45.060;38.948;2023-07-31T05:05:39;29.04;45.28
64833;HTU21D;51290;45.060;38.948;2023-07-31T05:08:05;28.95;45.40
64833;HTU21D;51290;45.060;38.948;2023-07-31T05:10:31;28.86;45.47
64833;HTU21D;51290;45.060;38.948;2023-07-31T05:12:57;28.77;45.69
64833;HTU21D;51290;45.060;38.948;2023-07-31T05:15:23;28.75;45.82
64833;HTU21D;51290;45.060;38.948;2023-07-31T05:17:49;28.77;45.96
64833;HTU21D;51290;45.060;38.948;2023-07-31T05:20:15;28.78;45.88
64833;HTU21D;51290;45.060;38.948;2023-07-31T05:22:41;28.76;45.78
64833;HTU21D;51290;45.060;38.948;2023-07-31T05:25:07;28.72;45.55
64833;HTU21D;51290;45.060;38.948;2023-07-31T05:27:33;28.69;45.63
64833;HTU21D;51290;45.060;38.948;2023-07-31T05:29:59;28.68;45.65
64833;HTU21D;51290;45.060;38.948;2023-07-31T05:32:25;28.72;45.70
64833;HTU21D;51290;45.060;38.948;2023-07-31T05:34:52;28.73;45.66
64833;HTU21D;51290;45.060;38.948;2023-07-31T05:37:19;28.67;45.40
64833;HTU21D;51290;45.060;38.948;2023-07-31T05:39:45;28.54;45.36
64833;HTU21D;51290;45.060;38.948;2023-07-31T05:42:14;28.43;45.58
64833;HTU21D;51290;45.060;38.948;2023-07-31T05:44:39;28.43;45.75
64833;HTU21D;51290;45.060;38.948;2023-07-31T05:47:06;28.49;45.96
64833;HTU21D;51290;45.060;38.948;2023-07-31T05:49:32;28.63;45.91
64833;HTU21D;51290;45.060;38.948;2023-07-31T05:51:58;28.78;45.78
64833;HTU21D;51290;45.060;38.948;2023-07-31T05:54:24;28.83;45.33
64833;HTU21D;51290;45.060;38.948;2023-07-31T05:56:51;28.69;45.33
64833;HTU21D;51290;45.060;38.948;2023-07-31T05:59:17;28.65;45.64
64833;HTU21D;51290;45.060;38.948;2023-07-31T06:01:43;28.68;45.64
64833;HTU21D;51290;45.060;38.948;2023-07-31T06:04:09;28.75;45.66
64833;HTU21D;51290;45.060;38.948;2023-07-31T06:06:35;28.83;45.63
64833;HTU21D;51290;45.060;38.948;2023-07-31T06:09:01;28.88;45.40
64833;HTU21D;51290;45.060;38.948;2023-07-31T06:11:29;28.91;45.38
64833;HTU21D;51290;45.060;38.948;2023-07-31T06:13:55;28.82;45.03
64833;HTU21D;51290;45.060;38.948;2023-07-31T06:16:21;28.64;45.22
64833;HTU21D;51290;45.060;38.948;2023-07-31T06:18:47;28.48;45.28
64833;HTU21D;51290;45.060;38.948;2023-07-31T06:21:13;28.35;45.39
64833;HTU21D;51290;45.060;38.948;2023-07-31T06:23:41;28.33;45.64
64833;HTU21D;51290;45.060;38.948;2023-07-31T06:26:08;28.38;45.52
64833;HTU21D;51290;45.060;38.948;2023-07-31T06:28:34;28.44;45.35
64833;HTU21D;51290;45.060;38.948;2023-07-31T06:31:00;28.48;45.33
64833;HTU21D;51290;45.060;38.948;2023-07-31T06:33:27;28.56;45.24
64833;HTU21D;51290;45.060;38.948;2023-07-31T06:35:55;28.73;45.35
64833;HTU21D;51290;45.060;38.948;2023-07-31T06:38:30;28.95;45.19
64833;HTU21D;51290;45.060;38.948;2023-07-31T06:40:56;29.04;44.79
64833;HTU21D;51290;45.060;38.948;2023-07-31T06:43:22;29.09;44.58
64833;HTU21D;51290;45.060;38.948;2023-07-31T06:45:48;29.07;44.37
64833;HTU21D;51290;45.060;38.948;2023-07-31T06:48:17;29.05;44.27
64833;HTU21D;51290;45.060;38.948;2023-07-31T06:50:43;28.99;43.55
64833;HTU21D;51290;45.060;38.948;2023-07-31T06:53:09;28.97;43.64
64833;HTU21D;51290;45.060;38.948;2023-07-31T06:55:37;29.01;43.64
64833;HTU21D;51290;45.060;38.948;2023-07-31T06:58:03;29.07;43.58
64833;HTU21D;51290;45.060;38.948;2023-07-31T07:00:30;29.13;43.58
64833;HTU21D;51290;45.060;38.948;2023-07-31T07:03:06;29.15;43.47
64833;HTU21D;51290;45.060;38.948;2023-07-31T07:05:32;29.14;43.30
64833;HTU21D;51290;45.060;38.948;2023-07-31T07:07:58;29.13;43.40
64833;HTU21D;51290;45.060;38.948;2023-07-31T07:10:24;29.12;43.39
64833;HTU21D;51290;45.060;38.948;2023-07-31T07:12:50;29.17;43.17
64833;HTU21D;51290;45.060;38.948;2023-07-31T07:15:16;29.26;42.80
64833;HTU21D;51290;45.060;38.948;2023-07-31T07:17:42;29.34;42.61
64833;HTU21D;51290;45.060;38.948;2023-07-31T07:20:08;29.38;42.37
64833;HTU21D;51290;45.060;38.948;2023-07-31T07:22:35;29.39;42.20
64833;HTU21D;51290;45.060;38.948;2023-07-31T07:25:03;29.39;42.14
64833;HTU21D;51290;45.060;38.948;2023-07-31T07:27:29;29.41;42.29
64833;HTU21D;51290;45.060;38.948;2023-07-31T07:29:55;29.45;42.06
64833;HTU21D;51290;45.060;38.948;2023-07-31T07:32:21;29.52;41.76
64833;HTU21D;51290;45.060;38.948;2023-07-31T07:34:48;29.62;41.69
64833;HTU21D;51290;45.060;38.948;2023-07-31T07:37:14;29.71;41.46
64833;HTU21D;51290;45.060;38.948;2023-07-31T07:39:40;29.75;41.10
64833;HTU21D;51290;45.060;38.948;2023-07-31T07:42:06;29.81;41.16
64833;HTU21D;51290;45.060;38.948;2023-07-31T07:44:32;29.93;40.59
64833;HTU21D;51290;45.060;38.948;2023-07-31T07:46:58;30.01;40.20
64833;HTU21D;51290;45.060;38.948;2023-07-31T07:49:25;30.07;40.07
64833;HTU21D;51290;45.060;38.948;2023-07-31T07:51:51;30.16;39.81
64833;HTU21D;51290;45.060;38.948;2023-07-31T07:54:26;30.22;40.02
64833;HTU21D;51290;45.060;38.948;2023-07-31T07:56:52;30.30;39.80
64833;HTU21D;51290;45.060;38.948;2023-07-31T07:59:18;30.41;39.68
64833;HTU21D;51290;45.060;38.948;2023-07-31T08:01:44;30.51;39.34
64833;HTU21D;51290;45.060;38.948;2023-07-31T08:04:10;30.51;39.10
64833;HTU21D;51290;45.060;38.948;2023-07-31T08:06:36;30.54;39.25
64833;HTU21D;51290;45.060;38.948;2023-07-31T08:09:04;30.62;39.14
64833;HTU21D;51290;45.060;38.948;2023-07-31T08:11:32;30.66;39.16
64833;HTU21D;51290;45.060;38.948;2023-07-31T08:13:58;30.74;38.91
64833;HTU21D;51290;45.060;38.948;2023-07-31T08:16:24;30.77;38.85
64833;HTU21D;51290;45.060;38.948;2023-07-31T08:18:50;30.83;38.94
64833;HTU21D;51290;45.060;38.948;2023-07-31T08:21:16;30.93;38.53
64833;HTU21D;51290;45.060;38.948;2023-07-31T08:23:42;30.96;38.44
64833;HTU21D;51290;45.060;38.948;2023-07-31T08:26:13;31.00;38.46
64833;HTU21D;51290;45.060;38.948;2023-07-31T08:28:39;31.06;38.34
64833;HTU21D;51290;45.060;38.948;2023-07-31T08:31:05;31.09;38.13
64833;HTU21D;51290;45.060;38.948;2023-07-31T08:33:31;31.09;38.04
64833;HTU21D;51290;45.060;38.948;2023-07-31T08:35:57;31.12;37.96
64833;HTU21D;51290;45.060;38.948;2023-07-31T08:38:25;31.11;37.89
64833;HTU21D;51290;45.060;38.948;2023-07-31T08:40:51;31.09;37.94
64833;HTU21D;51290;45.060;38.948;2023-07-31T08:43:19;31.10;37.94
64833;HTU21D;51290;45.060;38.948;2023-07-31T08:45:47;31.11;37.91
64833;HTU21D;51290;45.060;38.948;2023-07-31T08:48:15;31.15;37.88
64833;HTU21D;51290;45.060;38.948;2023-07-31T08:50:42;31.25;37.72
64833;HTU21D;51290;45.060;38.948;2023-07-31T08:53:08;31.28;37.68
64833;HTU21D;51290;45.060;38.948;2023-07-31T08:55:35;31.28;37.61
64833;HTU21D;51290;45.060;38.948;2023-07-31T08:58:03;31.30;37.55
64833;HTU21D;51290;45.060;38.948;2023-07-31T09:00:31;31.36;37.59
64833;HTU21D;51290;45.060;38.948;2023-07-31T09:03:02;31.49;37.40
64833;HTU21D;51290;45.060;38.948;2023-07-31T09:05:30;31.56;37.02
64833;HTU21D;51290;45.060;38.948;2023-07-31T09:07:56;31.66;36.98
64833;HTU21D;51290;45.060;38.948;2023-07-31T09:10:23;31.76;36.74
64833;HTU21D;51290;45.060;38.948;2023-07-31T09:12:51;31.76;36.64
64833;HTU21D;51290;45.060;38.948;2023-07-31T09:15:17;31.72;36.53
64833;HTU21D;51290;45.060;38.948;2023-07-31T09:17:44;31.63;36.34
64833;HTU21D;51290;45.060;38.948;2023-07-31T09:22:48;31.63;36.48
64833;HTU21D;51290;45.060;38.948;2023-07-31T09:25:18;31.74;36.50
64833;HTU21D;51290;45.060;38.948;2023-07-31T09:27:54;31.85;36.27
64833;HTU21D;51290;45.060;38.948;2023-07-31T09:30:21;31.87;36.05
64833;HTU21D;51290;45.060;38.948;2023-07-31T09:32:48;31.85;35.98
64833;HTU21D;51290;45.060;38.948;2023-07-31T09:37:58;31.73;35.85
64833;HTU21D;51290;45.060;38.948;2023-07-31T09:40:29;31.70;35.76
64833;HTU21D;51290;45.060;38.948;2023-07-31T09:43:00;31.73;35.98
64833;HTU21D;51290;45.060;38.948;2023-07-31T09:45:27;31.82;35.82
64833;HTU21D;51290;45.060;38.948;2023-07-31T09:47:54;31.84;35.50
64833;HTU21D;51290;45.060;38.948;2023-07-31T09:50:22;31.84;35.26
64833;HTU21D;51290;45.060;38.948;2023-07-31T09:52:49;31.85;35.04
64833;HTU21D;51290;45.060;38.948;2023-07-31T09:55:16;31.81;35.11
64833;HTU21D;51290;45.060;38.948;2023-07-31T09:57:48;31.78;35.39
64833;HTU21D;51290;45.060;38.948;2023-07-31T10:00:17;31.75;35.56
64833;HTU21D;51290;45.060;38.948;2023-07-31T10:02:46;31.73;35.58
64833;HTU21D;51290;45.060;38.948;2023-07-31T10:05:16;31.73;35.30
64833;HTU21D;51290;45.060;38.948;2023-07-31T10:07:54;31.69;35.21
64833;HTU21D;51290;45.060;38.948;2023-07-31T10:10:22;31.64;35.28
64833;HTU21D;51290;45.060;38.948;2023-07-31T10:12:49;31.58;34.95
64833;HTU21D;51290;45.060;38.948;2023-07-31T10:15:18;31.55;34.91
64833;HTU21D;51290;45.060;38.948;2023-07-31T10:17:49;31.52;34.89
64833;HTU21D;51290;45.060;38.948;2023-07-31T10:20:16;31.54;35.15
64833;HTU21D;51290;45.060;38.948;2023-07-31T10:22:43;31.55;34.86
64833;HTU21D;51290;45.060;38.948;2023-07-31T10:25:11;31.57;34.77
64833;HTU21D;51290;45.060;38.948;2023-07-31T10:27:38;31.60;34.89
64833;HTU21D;51290;45.060;38.948;2023-07-31T10:30:11;31.64;34.89
64833;HTU21D;51290;45.060;38.948;2023-07-31T10:32:40;31.67;34.66
64833;HTU21D;51290;45.060;38.948;2023-07-31T10:35:08;31.71;34.63
64833;HTU21D;51290;45.060;38.948;2023-07-31T10:40:11;31.73;34.19
64833;HTU21D;51290;45.060;38.948;2023-07-31T10:42:51;31.76;34.22
64833;HTU21D;51290;45.060;38.948;2023-07-31T10:45:35;31.79;33.54
64833;HTU21D;51290;45.060;38.948;2023-07-31T10:48:06;31.81;33.56
64833;HTU21D;51290;45.060;38.948;2023-07-31T10:50:37;31.82;33.10
64833;HTU21D;51290;45.060;38.948;2023-07-31T10:53:04;31.83;33.29
64833;HTU21D;51290;45.060;38.948;2023-07-31T10:58:12;31.78;33.32
64833;HTU21D;51290;45.060;38.948;2023-07-31T11:00:43;31.75;33.62
64833;HTU21D;51290;45.060;38.948;2023-07-31T11:03:19;31.82;33.82
64833;HTU21D;51290;45.060;38.948;2023-07-31T11:05:52;31.90;33.89
64833;HTU21D;51290;45.060;38.948;2023-07-31T11:08:29;32.01;33.89
64833;HTU21D;51290;45.060;38.948;2023-07-31T11:16:00;32.22;33.79
64833;HTU21D;51290;45.060;38.948;2023-07-31T11:18:27;32.18;33.50
64833;HTU21D;51290;45.060;38.948;2023-07-31T11:20:53;32.17;33.66
64833;HTU21D;51290;45.060;38.948;2023-07-31T11:23:20;32.17;33.45
64833;HTU21D;51290;45.060;38.948;2023-07-31T11:25:46;32.16;33.58
64833;HTU21D;51290;45.060;38.948;2023-07-31T11:28:13;32.22;33.80
64833;HTU21D;51290;45.060;38.948;2023-07-31T11:30:41;32.26;33.85
64833;HTU21D;51290;45.060;38.948;2023-07-31T11:33:09;32.27;33.83
64833;HTU21D;51290;45.060;38.948;2023-07-31T11:35:40;32.25;33.95
64833;HTU21D;51290;45.060;38.948;2023-07-31T11:38:07;32.27;33.97
64833;HTU21D;51290;45.060;38.948;2023-07-31T11:40:43;32.25;34.15
64833;HTU21D;51290;45.060;38.948;2023-07-31T11:43:18;32.28;34.00
64833;HTU21D;51290;45.060;38.948;2023-07-31T11:46:02;32.30;34.20
64833;HTU21D;51290;45.060;38.948;2023-07-31T11:48:31;32.30;34.22
64833;HTU21D;51290;45.060;38.948;2023-07-31T11:51:01;32.33;34.09
64833;HTU21D;51290;45.060;38.948;2023-07-31T11:56:08;32.41;34.16
64833;HTU21D;51290;45.060;38.948;2023-07-31T11:58:37;32.44;34.11
64833;HTU21D;51290;45.060;38.948;2023-07-31T12:01:04;32.38;33.95
64833;HTU21D;51290;45.060;38.948;2023-07-31T12:03:31;32.28;33.70
64833;HTU21D;51290;45.060;38.948;2023-07-31T12:06:01;32.18;33.89
64833;HTU21D;51290;45.060;38.948;2023-07-31T12:08:30;32.12;34.08
64833;HTU21D;51290;45.060;38.948;2023-07-31T12:11:04;32.11;34.19
64833;HTU21D;51290;45.060;38.948;2023-07-31T12:13:31;32.09;34.05
64833;HTU21D;51290;45.060;38.948;2023-07-31T12:15:58;32.08;33.96
64833;HTU21D;51290;45.060;38.948;2023-07-31T12:18:27;32.08;33.97
64833;HTU21D;51290;45.060;38.948;2023-07-31T12:20:57;32.13;33.97
64833;HTU21D;51290;45.060;38.948;2023-07-31T12:23:26;32.18;33.89
64833;HTU21D;51290;45.060;38.948;2023-07-31T12:26:15;32.23;33.91
64833;HTU21D;51290;45.060;38.948;2023-07-31T12:28:45;32.24;33.85
64833;HTU21D;51290;45.060;38.948;2023-07-31T12:31:16;32.28;33.67
64833;HTU21D;51290;45.060;38.948;2023-07-31T12:33:49;32.30;33.57
64833;HTU21D;51290;45.060;38.948;2023-07-31T12:36:17;32.34;33.63
64833;HTU21D;51290;45.060;38.948;2023-07-31T12:38:44;32.35;33.48
64833;HTU21D;51290;45.060;38.948;2023-07-31T12:41:10;32.32;33.49
64833;HTU21D;51290;45.060;38.948;2023-07-31T12:43:38;32.33;33.44
64833;HTU21D;51290;45.060;38.948;2023-07-31T12:46:05;32.34;33.42
64833;HTU21D;51290;45.060;38.948;2023-07-31T12:48:32;32.37;33.30
64833;HTU21D;51290;45.060;38.948;2023-07-31T12:50:58;32.37;33.41
64833;HTU21D;51290;45.060;38.948;2023-07-31T12:53:24;32.37;33.32
64833;HTU21D;51290;45.060;38.948;2023-07-31T12:55:50;32.35;33.38
64833;HTU21D;51290;45.060;38.948;2023-07-31T12:58:16;32.37;33.35
64833;HTU21D;51290;45.060;38.948;2023-07-31T13:00:42;32.35;33.41
64833;HTU21D;51290;45.060;38.948;2023-07-31T13:03:10;32.35;33.52
64833;HTU21D;51290;45.060;38.948;2023-07-31T13:05:36;32.39;33.34
64833;HTU21D;51290;45.060;38.948;2023-07-31T13:08:02;32.41;33.21
64833;HTU21D;51290;45.060;38.948;2023-07-31T13:10:29;32.44;33.23
64833;HTU21D;51290;45.060;38.948;2023-07-31T13:12:56;32.48;33.11
64833;HTU21D;51290;45.060;38.948;2023-07-31T13:15:22;32.54;32.94
64833;HTU21D;51290;45.060;38.948;2023-07-31T13:17:48;32.60;32.97
64833;HTU21D;51290;45.060;38.948;2023-07-31T13:20:14;32.67;32.87
64833;HTU21D;51290;45.060;38.948;2023-07-31T13:22:40;32.70;32.78
64833;HTU21D;51290;45.060;38.948;2023-07-31T13:25:06;32.72;32.56
64833;HTU21D;51290;45.060;38.948;2023-07-31T13:27:33;32.74;32.20
64833;HTU21D;51290;45.060;38.948;2023-07-31T13:29:59;32.77;32.28
64833;HTU21D;51290;45.060;38.948;2023-07-31T13:32:39;32.79;32.25
64833;HTU21D;51290;45.060;38.948;2023-07-31T13:35:06;32.82;32.28
64833;HTU21D;51290;45.060;38.948;2023-07-31T13:37:32;32.84;32.10
64833;HTU21D;51290;45.060;38.948;2023-07-31T13:39:58;32.87;31.80
64833;HTU21D;51290;45.060;38.948;2023-07-31T13:42:24;32.85;31.71
64833;HTU21D;51290;45.060;38.948;2023-07-31T13:44:50;32.90;31.90
64833;HTU21D;51290;45.060;38.948;2023-07-31T13:47:16;32.98;32.02
64833;HTU21D;51290;45.060;38.948;2023-07-31T13:49:45;33.07;32.08
64833;HTU21D;51290;45.060;38.948;2023-07-31T13:52:12;33.09;31.82
64833;HTU21D;51290;45.060;38.948;2023-07-31T13:54:37;33.07;31.86
64833;HTU21D;51290;45.060;38.948;2023-07-31T13:57:04;33.04;31.86
64833;HTU21D;51290;45.060;38.948;2023-07-31T13:59:30;32.99;31.90
64833;HTU21D;51290;45.060;38.948;2023-07-31T14:01:56;32.92;31.92
64833;HTU21D;51290;45.060;38.948;2023-07-31T14:04:22;32.92;32.06
64833;HTU21D;51290;45.060;38.948;2023-07-31T14:06:48;32.98;32.09
64833;HTU21D;51290;45.060;38.948;2023-07-31T14:09:16;33.09;31.96
64833;HTU21D;51290;45.060;38.948;2023-07-31T14:11:43;33.17;31.79
64833;HTU21D;51290;45.060;38.948;2023-07-31T14:14:09;33.20;31.75
64833;HTU21D;51290;45.060;38.948;2023-07-31T14:16:35;33.17;31.63
64833;HTU21D;51290;45.060;38.948;2023-07-31T14:19:01;33.16;31.72
64833;HTU21D;51290;45.060;38.948;2023-07-31T14:21:27;33.13;31.78
64833;HTU21D;51290;45.060;38.948;2023-07-31T14:23:53;33.16;31.83
64833;HTU21D;51290;45.060;38.948;2023-07-31T14:26:20;33.11;31.74
64833;HTU21D;51290;45.060;38.948;2023-07-31T14:28:46;33.01;31.67
64833;HTU21D;51290;45.060;38.948;2023-07-31T14:31:12;32.88;31.87
64833;HTU21D;51290;45.060;38.948;2023-07-31T14:33:38;32.76;32.07
64833;HTU21D;51290;45.060;38.948;2023-07-31T14:36:05;32.69;32.22
64833;HTU21D;51290;45.060;38.948;2023-07-31T14:38:33;32.61;32.45
64833;HTU21D;51290;45.060;38.948;2023-07-31T14:41:01;32.59;32.57
64833;HTU21D;51290;45.060;38.948;2023-07-31T14:43:39;32.54;32.60
64833;HTU21D;51290;45.060;38.948;2023-07-31T14:46:05;32.52;32.72
64833;HTU21D;51290;45.060;38.948;2023-07-31T14:48:32;32.47;32.70
64833;HTU21D;51290;45.060;38.948;2023-07-31T14:50:58;32.43;32.72
64833;HTU21D;51290;45.060;38.948;2023-07-31T14:53:24;32.39;32.80
64833;HTU21D;51290;45.060;38.948;2023-07-31T14:55:50;32.33;32.83
64833;HTU21D;51290;45.060;38.948;2023-07-31T14:58:16;32.27;32.93
64833;HTU21D;51290;45.060;38.948;2023-07-31T15:00:43;32.24;33.05
64833;HTU21D;51290;45.060;38.948;2023-07-31T15:03:09;32.20;33.06
64833;HTU21D;51290;45.060;38.948;2023-07-31T15:05:35;32.17;33.18
64833;HTU21D;51290;45.060;38.948;2023-07-31T15:08:02;32.13;33.28
64833;HTU21D;51290;45.060;38.948;2023-07-31T15:10:28;32.10;33.36
64833;HTU21D;51290;45.060;38.948;2023-07-31T15:12:54;32.03;33.41
64833;HTU21D;51290;45.060;38.948;2023-07-31T15:15:20;32.00;33.45
64833;HTU21D;51290;45.060;38.948;2023-07-31T15:17:46;31.98;33.52
64833;HTU21D;51290;45.060;38.948;2023-07-31T15:20:12;31.93;33.58
64833;HTU21D;51290;45.060;38.948;2023-07-31T15:22:38;31.89;33.70
64833;HTU21D;51290;45.060;38.948;2023-07-31T15:25:04;31.86;33.82
64833;HTU21D;51290;45.060;38.948;2023-07-31T15:27:30;31.83;33.91